Querochaca, Ecuador

11:41 PM ECT on September 02, 2015 (GMT -0500)
Puerto Arturo -HC6AC -WS 1001 | | Change Station
CLOSE
Current Station
Personal Weather Station
Location: Ambato, TUNGURAHUA
Elevation: 8855 ft
Nearby Weather Stations

Elev 8855 ft 1.19 °S, 78.59 °W | Updated 19 seconds ago

Partly Cloudy
Partly Cloudy
46.2 °F
Feels Like 46 °F
N
2.7
Wind Variable Wind from West
Gusts 4.9 mph

Today
High -- | Low -- °F
--% Chance of Precip.
Yesterday
High -- | Low -- °F
Precip. -- in
6:11 AM 6:16 PM
Waning Gibbous, 74% visible
Pressure 30.51 in
Visibility 6.2 miles
Clouds Few 3000 ft
Windchill 46 °F
Dew Point 44 °F
Humidity 92%
Rainfall in
Snow Depth Not available.
UV 0.0 out of 12
Pollen Not available.
Air Quality Not available.
Flu Activity Not available.
METAR SELT 030400Z 11001KT 9999 FEW030 07/07 Q1033
Pressure 30.51 in
Visibility 6.2 miles
Clouds Few 3000 ft
Windchill 46 °F
Dew Point 44 °F
Humidity 92%
Rainfall in
Snow Depth Not available.
UV 0.0 out of 12
Pollen Not available.
Air Quality Not available.
Flu Activity Not available.
METAR SELT 030400Z 11001KT 9999 FEW030 07/07 Q1033

10-Day Weather Forecast

×

Almanac

Astronomy

Sep. 02, 2015 Rise Set
Actual Time
Civil Twilight
Nautical Twilight
Astronomical Twilight
Moon
Length of Visible Light
Length of Day
Tomorrow will be .
, % of the Moon is Illuminated

Today's Extremes

Country Highs Country Lows

Community

WunderPhotos

Upload Photos

1,851,913 photos uploaded!

WunderBlogs® & News

Nearby

Air Quality

  Air Quality AQ Index Pollutant
Not available.

Snow Depth

Station Depth Elevation

Earthquake Activity

City Distance Mag. Time & Date
Minimum magnitude displayed is 2.5.

Coastal Water Temperatures

Place Temperature

Stations

Nearby Weather Stations

Station Location Temp. Windchill Dew Point Humidity Wind Precip. Elev Updated Type